Deer Park, AL (36529)

2:01 AM CDT on July 25, 2014 (GMT -0500)
Mobile Regional (KMOB) Elev 220 ft | 30.69 °N, 88.25 °W | Change Station

Current weather conditions updated 5 minutes ago

Partly Cloudy
Partly Cloudy
74 °F
Feels Like 74 °F
N
0
Wind Variable Wind from North

Today is forecast to be Warmer than yesterday. Afternoon thunderstorms.

Today
High -- | Low -- °F
--% Chance of Precip.
Yesterday
High -- | Low -- °F
Precip. -- in
6:05 AM 7:53 PM
Waning Crescent, 2% visible
Pressure 29.99 in
Visibility 10.0 miles
Clouds Clear
Dew Point 74 °F
Humidity 100%
Rainfall 0.00 in
Snow Depth Not available.
UV 0 out of 12
Pollen 3.10 out of 12
Air Quality Not available.
Flu Activity Not available.
METAR KMOB 250656Z AUTO 00000KT 10SM CLR 23/23 A3000 RMK AO2 SLP155 T02330233

More Conditions Fewer Conditions

Pressure 29.99 in
Visibility 10.0 miles
Clouds Clear
Dew Point 74 °F
Humidity 100%
Rainfall 0.00 in
Snow Depth Not available.
UV 0 out of 12
Pollen 3.10 out of 12
Air Quality Not available.
Flu Activity Not available.
METAR KMOB 250656Z AUTO 00000KT 10SM CLR 23/23 A3000 RMK AO2 SLP155 T02330233

More Conditions Fewer Conditions

10-Day Weather Forecast

Almanac

Astronomy

Jul. 25, 2014 Rise Set
Actual Time 6:05 AM CDT 7:53 PM CDT
Civil Twilight 5:38 AM CDT 8:20 PM CDT
Nautical Twilight 5:06 AM CDT 8:52 PM CDT
Astronomical Twilight 4:32 AM CDT 9:26 PM CDT
Moon 5:02 AM CDT 6:53 PM CDT
Length of Visible Light 14h 41m
Length of Day
13h 47m
Tomorrow will be 1m 15s shorter.
Waning Crescent, 2% of the Moon is Illuminated
Today
Waning Crescent
Jul 26
New
Aug 3
First Quarter
Aug 10
Full
Aug 17
Last Quarter

Today's Extremes

State Highs State Lows

Community

WunderPhotos

Upload Photos

1,737,266 photos uploaded!

Nearby

Snow Depth

Station Depth Elevation
No new snow has been reported.

Earthquake Activity

City Distance Mag. Time & Date
No recent earthquake activity has been reported nearby.
Minimum magnitude displayed is 2.5.

Coastal Water Temperatures

Place Temperature
Mobile State Docks, AL 84.9 °F
Coast Guard Sector Mobile, AL 82.9 °F

Nearby Weather Stations

Station Location Temp. Heat Index Dew Point Humidity Wind Precip. Elev Updated Type
APRSWXNET Chunchula AL US, Citronelle, AL 74 °F 72 °F - - WSW  at  0 mph 0.00 in / hr 154 ft 12:33 AM CDT MADIS

Show More Stations Show Fewer Stations